CSN7556 ZSPD-ZBAD
Flight info
| Callsign | CSN7556 |
|---|---|
| Flight time | N/A |
| Altitude | 34100 |
| Route | PIK81D/17L PIKAS G330 PIMOL A593 DALIM W157 AVBOX |
| Aircraft | A320/M-SDE3FGHIRWY/LB1 |
Departure
| Time | 2026-04-30 12:37 |
|---|---|
| Airport | Shanghai Pudong International Airport (ZSPD) |
Arrival
| Time | N/A |
|---|---|
| Airport | Beijing Daxing International Airport (ZBAD) |
| Time | Latitude | Longitude | Altitude | Speed | Heading |
|---|---|---|---|---|---|
| 2026-04-30 12:34 | 31.16102 | 121.78941 | 23 ft | 17 kts | 343° |
| 2026-04-30 12:34 | 31.16176 | 121.78854 | 23 ft | 16 kts | 259° |
| 2026-04-30 12:35 | 31.16153 | 121.78766 | 26 ft | 0 kts | 251° |
| 2026-04-30 12:36 | 31.16150 | 121.78758 | 25 ft | 2 kts | 251° |
| 2026-04-30 12:36 | 31.16139 | 121.78719 | 23 ft | 7 kts | 252° |
| 2026-04-30 12:36 | 31.16108 | 121.78635 | 23 ft | 12 kts | 227° |
| 2026-04-30 12:36 | 31.16025 | 121.78639 | 22 ft | 14 kts | 159° |
| 2026-04-30 12:37 | 31.15773 | 121.78733 | 23 ft | 75 kts | 162° |
| 2026-04-30 12:37 | 31.15053 | 121.79004 | 26 ft | 138 kts | 162° |
| 2026-04-30 12:37 | 31.14003 | 121.79408 | 209 ft | 172 kts | 162° |
| 2026-04-30 12:37 | 31.12847 | 121.79847 | 918 ft | 174 kts | 163° |
| 2026-04-30 12:38 | 31.11696 | 121.80258 | 1732 ft | 173 kts | 165° |
| 2026-04-30 12:38 | 31.10495 | 121.80661 | 2230 ft | 190 kts | 166° |
| 2026-04-30 12:38 | 31.09157 | 121.81103 | 2606 ft | 208 kts | 166° |
| 2026-04-30 12:38 | 31.07733 | 121.81579 | 2966 ft | 216 kts | 166° |
| 2026-04-30 12:39 | 31.06292 | 121.82062 | 3008 ft | 215 kts | 166° |
| 2026-04-30 12:39 | 31.04853 | 121.82545 | 3009 ft | 215 kts | 166° |
| 2026-04-30 12:39 | 31.03415 | 121.83030 | 3009 ft | 215 kts | 166° |
| 2026-04-30 12:39 | 31.01977 | 121.83510 | 3010 ft | 214 kts | 168° |
| 2026-04-30 12:40 | 31.00519 | 121.83500 | 3006 ft | 210 kts | 199° |
| 2026-04-30 12:40 | 30.99316 | 121.82613 | 3009 ft | 205 kts | 231° |
| 2026-04-30 12:40 | 30.98671 | 121.81172 | 3015 ft | 201 kts | 254° |
| 2026-04-30 12:40 | 30.98242 | 121.79606 | 3007 ft | 204 kts | 253° |
| 2026-04-30 12:41 | 30.97810 | 121.78025 | 3009 ft | 205 kts | 253° |
| 2026-04-30 12:41 | 30.97000 | 121.75070 | 3009 ft | 206 kts | 253° |
| 2026-04-30 12:41 | 30.96567 | 121.73481 | 3009 ft | 206 kts | 255° |
| 2026-04-30 12:42 | 30.96345 | 121.71843 | 3006 ft | 205 kts | 269° |
| 2026-04-30 12:42 | 30.96447 | 121.70174 | 3304 ft | 207 kts | 277° |
| 2026-04-30 12:42 | 30.96591 | 121.68513 | 3754 ft | 206 kts | 276° |
| 2026-04-30 12:42 | 30.96717 | 121.66858 | 4253 ft | 205 kts | 276° |
| 2026-04-30 12:43 | 30.96835 | 121.65194 | 4799 ft | 207 kts | 276° |
| 2026-04-30 12:43 | 30.96938 | 121.63585 | 5313 ft | 207 kts | 276° |
| 2026-04-30 12:43 | 30.97032 | 121.61888 | 5856 ft | 207 kts | 276° |
| 2026-04-30 12:43 | 30.97111 | 121.60215 | 6403 ft | 206 kts | 276° |
| 2026-04-30 12:44 | 30.97361 | 121.58592 | 6919 ft | 203 kts | 291° |
| 2026-04-30 12:44 | 30.97819 | 121.57040 | 7435 ft | 202 kts | 291° |
| 2026-04-30 12:44 | 30.98274 | 121.55491 | 7930 ft | 202 kts | 291° |
| 2026-04-30 12:44 | 30.98728 | 121.53947 | 8409 ft | 201 kts | 291° |
| 2026-04-30 12:45 | 30.99180 | 121.52409 | 8888 ft | 201 kts | 291° |
| 2026-04-30 12:45 | 30.99634 | 121.50870 | 9384 ft | 202 kts | 291° |
| 2026-04-30 12:45 | 31.00107 | 121.49275 | 9873 ft | 216 kts | 290° |
| 2026-04-30 12:45 | 31.00614 | 121.47543 | 10348 ft | 236 kts | 288° |
| 2026-04-30 12:46 | 31.01007 | 121.45599 | 10815 ft | 257 kts | 284° |
| 2026-04-30 12:46 | 31.01396 | 121.43486 | 11289 ft | 276 kts | 284° |
| 2026-04-30 12:46 | 31.01814 | 121.41222 | 11772 ft | 294 kts | 285° |
| 2026-04-30 12:46 | 31.02257 | 121.38827 | 12257 ft | 310 kts | 285° |
| 2026-04-30 12:47 | 31.02718 | 121.36306 | 12748 ft | 325 kts | 284° |
| 2026-04-30 12:47 | 31.03195 | 121.33689 | 13246 ft | 333 kts | 285° |
| 2026-04-30 12:47 | 31.03676 | 121.31039 | 13749 ft | 336 kts | 285° |
| 2026-04-30 12:47 | 31.04163 | 121.28361 | 14213 ft | 337 kts | 285° |
| 2026-04-30 12:48 | 31.04649 | 121.25684 | 14666 ft | 337 kts | 285° |
| 2026-04-30 12:48 | 31.05134 | 121.23007 | 15116 ft | 338 kts | 285° |
| 2026-04-30 12:48 | 31.05617 | 121.20352 | 15565 ft | 340 kts | 285° |
| 2026-04-30 12:48 | 31.06270 | 121.17715 | 16043 ft | 338 kts | 295° |
| 2026-04-30 12:49 | 31.07516 | 121.15415 | 16523 ft | 338 kts | 310° |
| 2026-04-30 12:49 | 31.09302 | 121.13629 | 17003 ft | 343 kts | 324° |
| 2026-04-30 12:49 | 31.11519 | 121.12515 | 17504 ft | 354 kts | 339° |
| 2026-04-30 12:49 | 31.14006 | 121.12172 | 18015 ft | 365 kts | 349° |
| 2026-04-30 12:50 | 31.16545 | 121.12034 | 18503 ft | 367 kts | 349° |
| 2026-04-30 12:50 | 31.19101 | 121.11901 | 18982 ft | 367 kts | 349° |
| 2026-04-30 12:50 | 31.21664 | 121.11766 | 19500 ft | 370 kts | 349° |
| 2026-04-30 12:50 | 31.24246 | 121.11626 | 20044 ft | 373 kts | 349° |
| 2026-04-30 12:51 | 31.26849 | 121.11479 | 20593 ft | 376 kts | 349° |
| 2026-04-30 12:51 | 31.29458 | 121.11327 | 21116 ft | 379 kts | 348° |
| 2026-04-30 12:51 | 31.32100 | 121.11170 | 21634 ft | 382 kts | 348° |
| 2026-04-30 12:51 | 31.34766 | 121.11017 | 22147 ft | 386 kts | 350° |
| 2026-04-30 12:52 | 31.37485 | 121.11136 | 22633 ft | 394 kts | 354° |
| 2026-04-30 12:52 | 31.40236 | 121.11326 | 23123 ft | 397 kts | 354° |
| 2026-04-30 12:52 | 31.42990 | 121.11411 | 23637 ft | 393 kts | 348° |
| 2026-04-30 12:52 | 31.45667 | 121.10969 | 24040 ft | 385 kts | 339° |
| 2026-04-30 12:53 | 31.47353 | 121.10376 | 24296 ft | 381 kts | 333° |
| 2026-04-30 12:53 | 31.48181 | 121.09987 | 24424 ft | 379 kts | 330° |